KCHK

Chickasha Municipal Airport

Chickasha, Oklahoma, USA
METAR KCHK 162355Z AUTO 16018G27KT 10SM SCT095 BKN120 13/M05 A2989 RMK AO2 LTG DSNT NW T01341046 10161 20118 401611005
Observed Flight Rules
Dec-16 @ 23:55 UTC (30 minutes ago) Visual Flight Rules
Wind Visibility Clouds
160° at 18 knots
 Gusting to 27 knots
10 miles
  • Scattered at 9,500' AGL
  • Broken at 12,000' AGL
Temperatures Readings
Current 13°C / 55°F
Dewpoint -5°C / 23°F
Humidity 28%
Altimeter 29.89" Hg
Pressure 1012 hPa
Elevation 351
METAR KCHK 162355Z AUTO 16018G27KT 10SM SCT095 BKN120 13/M05 A2989 RMK AO2 LTG DSNT NW T01341046 10161 20118 401611005
Observed Flight Rules
Dec-16 @ 23:55 UTC
(30 minutes ago)
VFR
Wind Visibility
160° at 18 knots
 Gusting to 27 knots
10 miles
Clouds
  • Scattered at 9,500' AGL
  • Broken at 12,000' AGL
Temperature Dewpoint
13°C / 55°F -5°C / 23°F
Humidity Altimeter Pressure
28% 29.89" Hg 1012 hPa